Aviation Digital Data Service (ADDS)

Output produced by METARs form (0644 UTC 19 February 2019)
found at http://www.aviationweather.gov/metar/data/
 
Forecast for: FTTJ (NDJAMENA (CIV/MI, TD)
Text: TAF FTTJ 190500Z 1906/2012 02010KT 2500 DU NSC
Forecast period: 0600 to 0700 UTC 19 February 2019
Forecast type: FROM: standard forecast or significant change
Winds: from the NNE (20 degrees) at 12 MPH (10 knots; 5.1 m/s)
Visibility: 1.55 miles (2.49 km)
Ceiling: unknown
Clouds: missing
Weather: DU  (widespread dust)
Text: BECMG 1907/1910 7000 NSW
Forecast period: 0700 UTC 19 February 2019 to 1200 UTC 20 February 2019
Forecast type: BECOMING: Conditions expected to become as follows by 1000 UTC 19 February 2019
Winds: from the NNE (20 degrees) at 12 MPH (10 knots; 5.1 m/s)
Visibility: 4 miles (7 km)
Ceiling: unknown
Clouds: missing
Weather: NSW  (no significant weather)
Text: TEMPO 2002/2008 3000 DU
Forecast period: 0200 to 0800 UTC 20 February 2019
Forecast type: TEMPORARY: The following changes expected for less than half the time period
Visibility: 1.86 miles (2.99 km)
Ceiling: unknown
Clouds: missing
Weather: DU  (widespread dust)